This is the latest recevied weather packets stored in our database for station/object KC0SIQ-13. If no packets are shown the sender has not sent any weather packets the latest 10 day(s).
| Time | Temp. | Humidity | Pressure | Rain* | Wind** | Luminosity | Snow |
|---|---|---|---|---|---|---|---|
| 1778111684 | 7.22° C | 58% | 1015.9 hPa | 0 mm | - | 193 W/m² | - |
| 1778111380 | 7.78° C | 58% | 1016 hPa | 0 mm | - | 229 W/m² | - |
| 1778111078 | 7.78° C | 57% | 1016.1 hPa | 0 mm | - | 235 W/m² | - |
| 1778110775 | 7.78° C | 59% | 1015.9 hPa | 0 mm | - | 253 W/m² | - |
| 1778110471 | 7.78° C | 56% | 1015.9 hPa | 0 mm | - | 249 W/m² | - |
| 1778110168 | 7.78° C | 59% | 1015.9 hPa | 0 mm | - | 246 W/m² | - |
| 1778109864 | 7.78° C | 58% | 1015.9 hPa | 0 mm | - | 259 W/m² | - |
| 1778109560 | 7.78° C | 57% | 1016.1 hPa | 0 mm | - | 275 W/m² | - |
| 1778109258 | 7.78° C | 58% | 1015.7 hPa | 0 mm | - | 286 W/m² | - |
| 1778108955 | 7.78° C | 58% | 1016 hPa | 0 mm | - | 319 W/m² | - |
| 1778108651 | 7.78° C | 56% | 1015.9 hPa | 0 mm | - | 322 W/m² | - |
| 1778108348 | 7.78° C | 55% | 1015.9 hPa | 0 mm | - | 341 W/m² | - |
| 1778108045 | 7.78° C | 57% | 1015.6 hPa | 0 mm | - | 344 W/m² | - |
| 1778107742 | 7.78° C | 56% | 1015.7 hPa | 0 mm | - | 355 W/m² | - |
| 1778107440 | 7.22° C | 56% | 1015.9 hPa | 0 mm | - | 374 W/m² | - |
| 1778107135 | 7.78° C | 57% | 1015.7 hPa | 0 mm | - | 400 W/m² | - |
| 1778106831 | 7.78° C | 59% | 1015.7 hPa | 0 mm | - | 406 W/m² | - |
| 1778106528 | 7.78° C | 56% | 1015.9 hPa | 0 mm | - | 420 W/m² | - |
| 1778106224 | 7.78° C | 56% | 1016.2 hPa | 0 mm | - | 442 W/m² | - |
| 1778105922 | 7.78° C | 54% | 1016.3 hPa | 0 mm | - | 448 W/m² | - |
| 1778105619 | 7.78° C | 56% | 1016.1 hPa | 0 mm | - | 421 W/m² | - |
| 1778105317 | 7.78° C | 56% | 1016.2 hPa | 0 mm | - | 460 W/m² | - |
| 1778105012 | 7.78° C | 59% | 1016.1 hPa | 0 mm | - | 517 W/m² | - |
| 1778104709 | 7.78° C | 56% | 1016.4 hPa | 0 mm | - | 563 W/m² | - |
| 1778104405 | 7.22° C | 60% | 1016.3 hPa | 0 mm | - | 612 W/m² | - |
* Rain latest hour (hover to see other rain measurements)
** Current wind speed in m/s (hover to see current wind gust speed)